sensor_id;sensor_type;location;lat;lon;timestamp;temperature;humidity
31575;DHT22;18182;1.328;103.810;2022-08-03T00:00:00;28.70;99.90
31575;DHT22;18182;1.328;103.810;2022-08-03T00:02:27;28.70;99.90
31575;DHT22;18182;1.328;103.810;2022-08-03T00:04:53;28.70;99.90
31575;DHT22;18182;1.328;103.810;2022-08-03T00:07:19;28.70;99.90
31575;DHT22;18182;1.328;103.810;2022-08-03T00:09:45;28.70;99.90
31575;DHT22;18182;1.328;103.810;2022-08-03T00:12:12;28.60;99.90
31575;DHT22;18182;1.328;103.810;2022-08-03T00:14:38;28.60;99.90
31575;DHT22;18182;1.328;103.810;2022-08-03T00:17:04;28.60;99.90
31575;DHT22;18182;1.328;103.810;2022-08-03T00:19:30;28.70;99.90
31575;DHT22;18182;1.328;103.810;2022-08-03T00:21:56;28.70;99.90
31575;DHT22;18182;1.328;103.810;2022-08-03T00:24:23;28.70;99.90
31575;DHT22;18182;1.328;103.810;2022-08-03T00:26:49;28.80;99.90
31575;DHT22;18182;1.328;103.810;2022-08-03T00:29:15;28.80;99.90
31575;DHT22;18182;1.328;103.810;2022-08-03T00:31:42;28.80;99.90
31575;DHT22;18182;1.328;103.810;2022-08-03T00:34:08;28.80;99.90
31575;DHT22;18182;1.328;103.810;2022-08-03T00:36:34;28.80;99.90
31575;DHT22;18182;1.328;103.810;2022-08-03T00:39:00;28.90;99.90
31575;DHT22;18182;1.328;103.810;2022-08-03T00:41:26;28.90;99.90
31575;DHT22;18182;1.328;103.810;2022-08-03T00:43:52;28.90;99.90
31575;DHT22;18182;1.328;103.810;2022-08-03T00:46:19;28.90;99.90
31575;DHT22;18182;1.328;103.810;2022-08-03T00:48:49;28.90;99.90
31575;DHT22;18182;1.328;103.810;2022-08-03T00:51:16;28.90;99.90
31575;DHT22;18182;1.328;103.810;2022-08-03T00:53:43;29.00;99.90
31575;DHT22;18182;1.328;103.810;2022-08-03T00:56:12;29.00;99.90
31575;DHT22;18182;1.328;103.810;2022-08-03T00:58:38;29.00;99.90
31575;DHT22;18182;1.328;103.810;2022-08-03T01:01:04;29.00;99.90
31575;DHT22;18182;1.328;103.810;2022-08-03T01:03:31;29.00;99.90
31575;DHT22;18182;1.328;103.810;2022-08-03T01:06:22;29.00;99.90
31575;DHT22;18182;1.328;103.810;2022-08-03T01:13:56;29.10;99.90
31575;DHT22;18182;1.328;103.810;2022-08-03T01:16:29;29.10;99.90
31575;DHT22;18182;1.328;103.810;2022-08-03T01:19:40;29.10;99.90
31575;DHT22;18182;1.328;103.810;2022-08-03T01:31:38;29.10;99.90
31575;DHT22;18182;1.328;103.810;2022-08-03T01:34:05;29.20;99.90
31575;DHT22;18182;1.328;103.810;2022-08-03T01:36:33;29.20;99.90
31575;DHT22;18182;1.328;103.810;2022-08-03T01:39:01;29.20;99.90
31575;DHT22;18182;1.328;103.810;2022-08-03T01:41:33;29.30;99.90
31575;DHT22;18182;1.328;103.810;2022-08-03T01:44:00;29.20;99.90
31575;DHT22;18182;1.328;103.810;2022-08-03T01:46:28;29.30;99.90
31575;DHT22;18182;1.328;103.810;2022-08-03T01:48:55;29.30;99.90
31575;DHT22;18182;1.328;103.810;2022-08-03T01:51:22;29.30;99.90
31575;DHT22;18182;1.328;103.810;2022-08-03T01:53:49;29.30;99.90
31575;DHT22;18182;1.328;103.810;2022-08-03T01:56:16;29.30;99.90
31575;DHT22;18182;1.328;103.810;2022-08-03T01:58:43;29.40;99.90
31575;DHT22;18182;1.328;103.810;2022-08-03T02:01:10;29.50;99.90
31575;DHT22;18182;1.328;103.810;2022-08-03T02:03:38;29.50;99.90
31575;DHT22;18182;1.328;103.810;2022-08-03T02:06:08;29.50;99.90
31575;DHT22;18182;1.328;103.810;2022-08-03T02:08:39;29.60;99.90
31575;DHT22;18182;1.328;103.810;2022-08-03T02:11:06;29.70;99.90
31575;DHT22;18182;1.328;103.810;2022-08-03T02:13:33;29.70;99.90
31575;DHT22;18182;1.328;103.810;2022-08-03T02:16:00;29.80;99.90
31575;DHT22;18182;1.328;103.810;2022-08-03T02:18:27;29.80;99.90
31575;DHT22;18182;1.328;103.810;2022-08-03T02:20:54;29.90;99.90
31575;DHT22;18182;1.328;103.810;2022-08-03T02:23:20;29.80;99.90
31575;DHT22;18182;1.328;103.810;2022-08-03T02:25:50;29.80;99.90
31575;DHT22;18182;1.328;103.810;2022-08-03T02:28:19;29.70;99.90
31575;DHT22;18182;1.328;103.810;2022-08-03T02:30:49;29.50;99.90
31575;DHT22;18182;1.328;103.810;2022-08-03T02:33:20;29.50;99.90
31575;DHT22;18182;1.328;103.810;2022-08-03T02:35:48;29.40;99.90
31575;DHT22;18182;1.328;103.810;2022-08-03T02:38:15;29.30;99.90
31575;DHT22;18182;1.328;103.810;2022-08-03T02:40:43;29.20;99.90
31575;DHT22;18182;1.328;103.810;2022-08-03T02:43:10;29.10;99.90
31575;DHT22;18182;1.328;103.810;2022-08-03T02:45:41;28.90;99.90
31575;DHT22;18182;1.328;103.810;2022-08-03T02:48:07;28.90;99.90
31575;DHT22;18182;1.328;103.810;2022-08-03T02:50:35;28.70;99.90
31575;DHT22;18182;1.328;103.810;2022-08-03T02:53:02;28.60;99.90
31575;DHT22;18182;1.328;103.810;2022-08-03T02:55:28;28.50;99.90
31575;DHT22;18182;1.328;103.810;2022-08-03T02:57:55;28.30;99.90
31575;DHT22;18182;1.328;103.810;2022-08-03T03:00:22;28.20;99.90
31575;DHT22;18182;1.328;103.810;2022-08-03T03:02:49;28.00;99.90
31575;DHT22;18182;1.328;103.810;2022-08-03T03:05:15;27.90;99.90
31575;DHT22;18182;1.328;103.810;2022-08-03T03:07:43;27.70;99.90
31575;DHT22;18182;1.328;103.810;2022-08-03T03:10:10;27.70;99.90
31575;DHT22;18182;1.328;103.810;2022-08-03T03:12:36;27.80;99.90
31575;DHT22;18182;1.328;103.810;2022-08-03T03:15:06;27.90;99.90
31575;DHT22;18182;1.328;103.810;2022-08-03T03:17:33;27.90;99.90
31575;DHT22;18182;1.328;103.810;2022-08-03T03:20:00;28.00;99.90
31575;DHT22;18182;1.328;103.810;2022-08-03T03:22:27;28.00;99.90
31575;DHT22;18182;1.328;103.810;2022-08-03T03:24:54;28.10;99.90
31575;DHT22;18182;1.328;103.810;2022-08-03T03:27:20;28.20;99.90
31575;DHT22;18182;1.328;103.810;2022-08-03T03:29:48;28.30;99.90
31575;DHT22;18182;1.328;103.810;2022-08-03T03:32:14;28.40;99.90
31575;DHT22;18182;1.328;103.810;2022-08-03T03:34:40;28.50;99.90
31575;DHT22;18182;1.328;103.810;2022-08-03T03:37:07;28.60;99.90
31575;DHT22;18182;1.328;103.810;2022-08-03T03:39:33;28.70;99.90
31575;DHT22;18182;1.328;103.810;2022-08-03T03:42:01;28.70;99.90
31575;DHT22;18182;1.328;103.810;2022-08-03T03:44:28;28.80;99.90
31575;DHT22;18182;1.328;103.810;2022-08-03T03:46:55;28.90;99.90
31575;DHT22;18182;1.328;103.810;2022-08-03T03:49:21;28.90;99.90
31575;DHT22;18182;1.328;103.810;2022-08-03T03:51:47;29.00;99.90
31575;DHT22;18182;1.328;103.810;2022-08-03T03:54:13;29.00;99.90
31575;DHT22;18182;1.328;103.810;2022-08-03T03:56:39;29.00;99.90
31575;DHT22;18182;1.328;103.810;2022-08-03T03:59:05;29.00;99.90
31575;DHT22;18182;1.328;103.810;2022-08-03T04:01:32;29.00;99.90
31575;DHT22;18182;1.328;103.810;2022-08-03T04:03:58;29.00;99.90
31575;DHT22;18182;1.328;103.810;2022-08-03T04:06:44;29.00;99.90
31575;DHT22;18182;1.328;103.810;2022-08-03T04:09:29;29.10;99.90
31575;DHT22;18182;1.328;103.810;2022-08-03T04:12:14;29.10;99.90
31575;DHT22;18182;1.328;103.810;2022-08-03T04:14:42;29.10;99.90
31575;DHT22;18182;1.328;103.810;2022-08-03T04:17:08;29.20;99.90
31575;DHT22;18182;1.328;103.810;2022-08-03T04:19:43;29.20;99.90
31575;DHT22;18182;1.328;103.810;2022-08-03T04:22:11;29.20;99.90
31575;DHT22;18182;1.328;103.810;2022-08-03T04:24:40;29.20;99.90
31575;DHT22;18182;1.328;103.810;2022-08-03T04:27:07;29.20;99.90
31575;DHT22;18182;1.328;103.810;2022-08-03T04:29:34;29.20;99.90
31575;DHT22;18182;1.328;103.810;2022-08-03T04:32:02;29.20;99.90
31575;DHT22;18182;1.328;103.810;2022-08-03T04:34:30;29.30;99.90
31575;DHT22;18182;1.328;103.810;2022-08-03T04:36:57;29.30;99.90
31575;DHT22;18182;1.328;103.810;2022-08-03T04:39:24;29.30;99.90
31575;DHT22;18182;1.328;103.810;2022-08-03T04:42:00;29.30;99.90
31575;DHT22;18182;1.328;103.810;2022-08-03T04:44:27;29.30;99.90
31575;DHT22;18182;1.328;103.810;2022-08-03T04:46:54;29.30;99.90
31575;DHT22;18182;1.328;103.810;2022-08-03T04:49:21;29.40;99.90
31575;DHT22;18182;1.328;103.810;2022-08-03T04:51:49;29.40;99.90
31575;DHT22;18182;1.328;103.810;2022-08-03T04:54:15;29.40;99.90
31575;DHT22;18182;1.328;103.810;2022-08-03T04:56:42;29.40;99.90
31575;DHT22;18182;1.328;103.810;2022-08-03T04:59:08;29.40;99.90
31575;DHT22;18182;1.328;103.810;2022-08-03T05:01:35;29.30;99.90
31575;DHT22;18182;1.328;103.810;2022-08-03T05:04:01;29.30;99.90
31575;DHT22;18182;1.328;103.810;2022-08-03T05:06:27;29.20;99.90
31575;DHT22;18182;1.328;103.810;2022-08-03T05:08:54;29.20;99.90
31575;DHT22;18182;1.328;103.810;2022-08-03T05:11:20;29.20;99.90
31575;DHT22;18182;1.328;103.810;2022-08-03T05:13:47;29.20;99.90
31575;DHT22;18182;1.328;103.810;2022-08-03T05:16:13;29.30;99.90
31575;DHT22;18182;1.328;103.810;2022-08-03T05:18:40;29.30;99.90
31575;DHT22;18182;1.328;103.810;2022-08-03T05:21:07;29.30;99.90
31575;DHT22;18182;1.328;103.810;2022-08-03T05:23:34;29.40;99.90
31575;DHT22;18182;1.328;103.810;2022-08-03T05:26:00;29.40;99.90
31575;DHT22;18182;1.328;103.810;2022-08-03T05:28:26;29.50;99.90
31575;DHT22;18182;1.328;103.810;2022-08-03T05:30:52;29.50;99.90
31575;DHT22;18182;1.328;103.810;2022-08-03T05:33:19;29.60;99.90
31575;DHT22;18182;1.328;103.810;2022-08-03T05:35:45;29.60;99.90
31575;DHT22;18182;1.328;103.810;2022-08-03T05:38:11;29.70;99.90
31575;DHT22;18182;1.328;103.810;2022-08-03T05:40:37;29.80;99.90
31575;DHT22;18182;1.328;103.810;2022-08-03T05:43:03;29.90;99.90
31575;DHT22;18182;1.328;103.810;2022-08-03T05:45:29;29.90;99.90
31575;DHT22;18182;1.328;103.810;2022-08-03T05:47:56;30.10;99.90
31575;DHT22;18182;1.328;103.810;2022-08-03T05:50:22;30.20;99.90
31575;DHT22;18182;1.328;103.810;2022-08-03T05:52:48;30.30;99.90
31575;DHT22;18182;1.328;103.810;2022-08-03T05:55:14;30.20;99.90
31575;DHT22;18182;1.328;103.810;2022-08-03T05:57:41;30.10;99.90
31575;DHT22;18182;1.328;103.810;2022-08-03T06:00:09;30.10;99.90
31575;DHT22;18182;1.328;103.810;2022-08-03T06:02:35;29.90;99.90
31575;DHT22;18182;1.328;103.810;2022-08-03T06:05:01;29.80;99.90
31575;DHT22;18182;1.328;103.810;2022-08-03T06:07:28;29.80;99.90
31575;DHT22;18182;1.328;103.810;2022-08-03T06:09:54;29.80;99.90
31575;DHT22;18182;1.328;103.810;2022-08-03T06:12:20;29.80;99.90
31575;DHT22;18182;1.328;103.810;2022-08-03T06:14:46;29.80;99.90
31575;DHT22;18182;1.328;103.810;2022-08-03T06:17:13;29.80;99.90
31575;DHT22;18182;1.328;103.810;2022-08-03T06:19:39;29.70;99.90
31575;DHT22;18182;1.328;103.810;2022-08-03T06:22:05;29.70;99.90
31575;DHT22;18182;1.328;103.810;2022-08-03T06:24:31;29.70;99.90
31575;DHT22;18182;1.328;103.810;2022-08-03T06:26:57;29.80;99.90
31575;DHT22;18182;1.328;103.810;2022-08-03T06:29:24;29.80;99.90
31575;DHT22;18182;1.328;103.810;2022-08-03T06:31:50;29.90;99.90
31575;DHT22;18182;1.328;103.810;2022-08-03T06:34:16;30.00;99.90
31575;DHT22;18182;1.328;103.810;2022-08-03T06:36:42;30.00;99.90
31575;DHT22;18182;1.328;103.810;2022-08-03T06:39:08;29.90;99.90
31575;DHT22;18182;1.328;103.810;2022-08-03T06:41:35;29.90;99.90
31575;DHT22;18182;1.328;103.810;2022-08-03T06:44:01;29.90;99.90
31575;DHT22;18182;1.328;103.810;2022-08-03T06:46:27;29.90;99.90
31575;DHT22;18182;1.328;103.810;2022-08-03T06:48:53;29.80;99.90
31575;DHT22;18182;1.328;103.810;2022-08-03T06:51:21;29.80;99.90
31575;DHT22;18182;1.328;103.810;2022-08-03T06:53:48;29.80;99.90
31575;DHT22;18182;1.328;103.810;2022-08-03T06:56:14;29.70;99.90
31575;DHT22;18182;1.328;103.810;2022-08-03T06:58:40;29.70;99.90
31575;DHT22;18182;1.328;103.810;2022-08-03T07:01:06;29.60;99.90
31575;DHT22;18182;1.328;103.810;2022-08-03T07:03:32;29.60;99.90
31575;DHT22;18182;1.328;103.810;2022-08-03T07:05:59;29.40;99.90
31575;DHT22;18182;1.328;103.810;2022-08-03T07:08:25;29.50;99.90
31575;DHT22;18182;1.328;103.810;2022-08-03T07:10:52;29.40;99.90
31575;DHT22;18182;1.328;103.810;2022-08-03T07:13:18;29.40;99.90
31575;DHT22;18182;1.328;103.810;2022-08-03T07:15:44;29.40;99.90
31575;DHT22;18182;1.328;103.810;2022-08-03T07:18:10;29.40;99.90
31575;DHT22;18182;1.328;103.810;2022-08-03T07:20:36;29.40;99.90
31575;DHT22;18182;1.328;103.810;2022-08-03T07:23:03;29.50;99.90
31575;DHT22;18182;1.328;103.810;2022-08-03T07:25:29;29.50;99.90
31575;DHT22;18182;1.328;103.810;2022-08-03T07:27:55;29.40;99.90
31575;DHT22;18182;1.328;103.810;2022-08-03T07:30:21;29.40;99.90
31575;DHT22;18182;1.328;103.810;2022-08-03T07:32:47;29.40;99.90
31575;DHT22;18182;1.328;103.810;2022-08-03T07:35:14;29.30;99.90
31575;DHT22;18182;1.328;103.810;2022-08-03T07:37:40;29.30;99.90
31575;DHT22;18182;1.328;103.810;2022-08-03T07:40:06;29.30;99.90
31575;DHT22;18182;1.328;103.810;2022-08-03T07:42:33;29.30;99.90
31575;DHT22;18182;1.328;103.810;2022-08-03T07:45:00;29.30;99.90
31575;DHT22;18182;1.328;103.810;2022-08-03T07:47:27;29.30;99.90
31575;DHT22;18182;1.328;103.810;2022-08-03T07:49:53;29.40;99.90
31575;DHT22;18182;1.328;103.810;2022-08-03T07:52:19;29.40;99.90
31575;DHT22;18182;1.328;103.810;2022-08-03T07:55:04;29.40;99.90
31575;DHT22;18182;1.328;103.810;2022-08-03T07:57:31;29.40;99.90
31575;DHT22;18182;1.328;103.810;2022-08-03T07:59:57;29.40;99.90
31575;DHT22;18182;1.328;103.810;2022-08-03T08:02:23;29.40;99.90
31575;DHT22;18182;1.328;103.810;2022-08-03T08:04:49;29.40;99.90
31575;DHT22;18182;1.328;103.810;2022-08-03T08:07:16;29.40;99.90
31575;DHT22;18182;1.328;103.810;2022-08-03T08:09:42;29.30;99.90
31575;DHT22;18182;1.328;103.810;2022-08-03T08:12:08;29.30;99.90
31575;DHT22;18182;1.328;103.810;2022-08-03T08:14:37;29.30;99.90
31575;DHT22;18182;1.328;103.810;2022-08-03T08:17:04;29.30;99.90
31575;DHT22;18182;1.328;103.810;2022-08-03T08:19:30;29.40;99.90
31575;DHT22;18182;1.328;103.810;2022-08-03T08:21:56;29.40;99.90
31575;DHT22;18182;1.328;103.810;2022-08-03T08:24:24;29.50;99.90
31575;DHT22;18182;1.328;103.810;2022-08-03T08:26:50;29.50;99.90
31575;DHT22;18182;1.328;103.810;2022-08-03T08:29:16;29.60;99.90
31575;DHT22;18182;1.328;103.810;2022-08-03T08:31:44;29.70;99.90
31575;DHT22;18182;1.328;103.810;2022-08-03T08:34:10;29.60;99.90
31575;DHT22;18182;1.328;103.810;2022-08-03T08:36:37;29.60;99.90
31575;DHT22;18182;1.328;103.810;2022-08-03T08:39:03;29.60;99.90
31575;DHT22;18182;1.328;103.810;2022-08-03T08:41:29;29.50;99.90
31575;DHT22;18182;1.328;103.810;2022-08-03T08:43:58;29.50;99.90
31575;DHT22;18182;1.328;103.810;2022-08-03T08:46:24;29.60;99.90
31575;DHT22;18182;1.328;103.810;2022-08-03T08:48:51;29.60;99.90
31575;DHT22;18182;1.328;103.810;2022-08-03T08:51:18;29.50;99.90
31575;DHT22;18182;1.328;103.810;2022-08-03T08:53:46;29.50;99.90
31575;DHT22;18182;1.328;103.810;2022-08-03T08:56:13;29.50;99.90
31575;DHT22;18182;1.328;103.810;2022-08-03T08:58:42;29.50;99.90
31575;DHT22;18182;1.328;103.810;2022-08-03T09:01:09;29.50;99.90
31575;DHT22;18182;1.328;103.810;2022-08-03T09:03:35;29.50;99.90
31575;DHT22;18182;1.328;103.810;2022-08-03T09:06:01;29.50;99.90
31575;DHT22;18182;1.328;103.810;2022-08-03T09:08:31;29.40;99.90
31575;DHT22;18182;1.328;103.810;2022-08-03T09:10:58;29.50;99.90
31575;DHT22;18182;1.328;103.810;2022-08-03T09:13:24;29.40;99.90
31575;DHT22;18182;1.328;103.810;2022-08-03T09:18:36;29.50;99.90
31575;DHT22;18182;1.328;103.810;2022-08-03T09:21:12;29.50;99.90
31575;DHT22;18182;1.328;103.810;2022-08-03T09:23:49;29.50;99.90
31575;DHT22;18182;1.328;103.810;2022-08-03T09:26:25;29.50;99.90
31575;DHT22;18182;1.328;103.810;2022-08-03T09:28:55;29.50;99.90
31575;DHT22;18182;1.328;103.810;2022-08-03T09:31:29;29.50;99.90
31575;DHT22;18182;1.328;103.810;2022-08-03T09:33:55;29.50;99.90
31575;DHT22;18182;1.328;103.810;2022-08-03T09:39:17;29.50;99.90
31575;DHT22;18182;1.328;103.810;2022-08-03T09:41:44;29.50;99.90
31575;DHT22;18182;1.328;103.810;2022-08-03T09:44:11;29.50;99.90
31575;DHT22;18182;1.328;103.810;2022-08-03T09:46:49;29.50;99.90
31575;DHT22;18182;1.328;103.810;2022-08-03T09:49:16;29.50;99.90
31575;DHT22;18182;1.328;103.810;2022-08-03T09:51:43;29.50;99.90
31575;DHT22;18182;1.328;103.810;2022-08-03T09:54:09;29.50;99.90
31575;DHT22;18182;1.328;103.810;2022-08-03T09:56:39;29.50;99.90
31575;DHT22;18182;1.328;103.810;2022-08-03T09:59:05;29.50;99.90
31575;DHT22;18182;1.328;103.810;2022-08-03T10:01:32;29.50;99.90
31575;DHT22;18182;1.328;103.810;2022-08-03T10:03:59;29.50;99.90
31575;DHT22;18182;1.328;103.810;2022-08-03T10:06:25;29.50;99.90
31575;DHT22;18182;1.328;103.810;2022-08-03T10:09:05;29.50;99.90
31575;DHT22;18182;1.328;103.810;2022-08-03T10:11:31;29.60;99.90
31575;DHT22;18182;1.328;103.810;2022-08-03T10:14:03;29.50;99.90
31575;DHT22;18182;1.328;103.810;2022-08-03T10:16:34;29.50;99.90
31575;DHT22;18182;1.328;103.810;2022-08-03T10:19:01;29.50;99.90
31575;DHT22;18182;1.328;103.810;2022-08-03T10:21:29;29.50;99.90
31575;DHT22;18182;1.328;103.810;2022-08-03T10:23:57;29.50;99.90
31575;DHT22;18182;1.328;103.810;2022-08-03T10:26:23;29.50;99.90
31575;DHT22;18182;1.328;103.810;2022-08-03T10:28:52;29.50;99.90
31575;DHT22;18182;1.328;103.810;2022-08-03T10:31:19;29.50;99.90
31575;DHT22;18182;1.328;103.810;2022-08-03T10:33:46;29.60;99.90
31575;DHT22;18182;1.328;103.810;2022-08-03T10:36:14;29.50;99.90
31575;DHT22;18182;1.328;103.810;2022-08-03T10:38:46;29.50;99.90
31575;DHT22;18182;1.328;103.810;2022-08-03T10:41:18;29.40;99.90
31575;DHT22;18182;1.328;103.810;2022-08-03T10:46:21;29.40;99.90
31575;DHT22;18182;1.328;103.810;2022-08-03T10:48:47;29.40;99.90
31575;DHT22;18182;1.328;103.810;2022-08-03T10:51:14;29.40;99.90
31575;DHT22;18182;1.328;103.810;2022-08-03T10:53:41;29.40;99.90
31575;DHT22;18182;1.328;103.810;2022-08-03T10:59:11;29.40;99.90
31575;DHT22;18182;1.328;103.810;2022-08-03T11:01:50;29.30;99.90
31575;DHT22;18182;1.328;103.810;2022-08-03T11:04:17;29.30;99.90
31575;DHT22;18182;1.328;103.810;2022-08-03T11:06:44;29.30;99.90
31575;DHT22;18182;1.328;103.810;2022-08-03T11:11:37;29.30;99.90
31575;DHT22;18182;1.328;103.810;2022-08-03T11:14:05;29.30;99.90
31575;DHT22;18182;1.328;103.810;2022-08-03T11:16:42;29.20;99.90
31575;DHT22;18182;1.328;103.810;2022-08-03T11:19:16;29.20;99.90
31575;DHT22;18182;1.328;103.810;2022-08-03T11:37:31;28.80;99.90
31575;DHT22;18182;1.328;103.810;2022-08-03T11:39:57;28.70;99.90
31575;DHT22;18182;1.328;103.810;2022-08-03T11:44:58;28.70;99.90
31575;DHT22;18182;1.328;103.810;2022-08-03T11:47:26;28.60;99.90
31575;DHT22;18182;1.328;103.810;2022-08-03T11:49:56;28.50;99.90
31575;DHT22;18182;1.328;103.810;2022-08-03T11:52:23;28.50;99.90
31575;DHT22;18182;1.328;103.810;2022-08-03T11:54:50;28.50;99.90
31575;DHT22;18182;1.328;103.810;2022-08-03T11:57:30;28.50;99.90
31575;DHT22;18182;1.328;103.810;2022-08-03T11:59:56;28.60;99.90
31575;DHT22;18182;1.328;103.810;2022-08-03T12:02:22;28.70;99.90
31575;DHT22;18182;1.328;103.810;2022-08-03T12:04:56;28.80;99.90
31575;DHT22;18182;1.328;103.810;2022-08-03T12:07:26;28.90;99.90
31575;DHT22;18182;1.328;103.810;2022-08-03T12:10:08;28.90;99.90
31575;DHT22;18182;1.328;103.810;2022-08-03T12:12:35;29.00;99.90
31575;DHT22;18182;1.328;103.810;2022-08-03T12:15:02;28.90;99.90
31575;DHT22;18182;1.328;103.810;2022-08-03T12:17:32;29.00;99.90
31575;DHT22;18182;1.328;103.810;2022-08-03T12:19:59;29.00;99.90
31575;DHT22;18182;1.328;103.810;2022-08-03T12:22:36;29.00;99.90
31575;DHT22;18182;1.328;103.810;2022-08-03T12:25:05;29.00;99.90
31575;DHT22;18182;1.328;103.810;2022-08-03T12:27:32;29.10;99.90
31575;DHT22;18182;1.328;103.810;2022-08-03T12:29:58;29.10;99.90
31575;DHT22;18182;1.328;103.810;2022-08-03T12:32:26;29.10;99.90
31575;DHT22;18182;1.328;103.810;2022-08-03T12:34:53;29.10;99.90
31575;DHT22;18182;1.328;103.810;2022-08-03T12:37:20;29.10;99.90
31575;DHT22;18182;1.328;103.810;2022-08-03T12:39:53;29.10;99.90
31575;DHT22;18182;1.328;103.810;2022-08-03T12:42:20;29.10;99.90
31575;DHT22;18182;1.328;103.810;2022-08-03T12:44:46;29.00;99.90
31575;DHT22;18182;1.328;103.810;2022-08-03T12:47:14;29.00;99.90
31575;DHT22;18182;1.328;103.810;2022-08-03T12:49:58;29.00;99.90
31575;DHT22;18182;1.328;103.810;2022-08-03T12:52:24;28.90;99.90
31575;DHT22;18182;1.328;103.810;2022-08-03T12:54:55;28.90;99.90
31575;DHT22;18182;1.328;103.810;2022-08-03T12:57:21;28.80;99.90
31575;DHT22;18182;1.328;103.810;2022-08-03T12:59:47;28.80;99.90
31575;DHT22;18182;1.328;103.810;2022-08-03T13:02:14;28.70;99.90
31575;DHT22;18182;1.328;103.810;2022-08-03T13:04:42;28.70;99.90
31575;DHT22;18182;1.328;103.810;2022-08-03T13:07:09;28.60;99.90
31575;DHT22;18182;1.328;103.810;2022-08-03T13:12:14;28.60;99.90
31575;DHT22;18182;1.328;103.810;2022-08-03T13:14:41;28.60;99.90
31575;DHT22;18182;1.328;103.810;2022-08-03T13:17:08;28.60;99.90
31575;DHT22;18182;1.328;103.810;2022-08-03T13:19:35;28.40;99.90
31575;DHT22;18182;1.328;103.810;2022-08-03T13:22:22;28.30;99.90
31575;DHT22;18182;1.328;103.810;2022-08-03T13:24:48;28.20;99.90
31575;DHT22;18182;1.328;103.810;2022-08-03T13:27:15;28.00;99.90
31575;DHT22;18182;1.328;103.810;2022-08-03T13:29:41;27.80;99.90
31575;DHT22;18182;1.328;103.810;2022-08-03T13:32:08;27.70;99.90
31575;DHT22;18182;1.328;103.810;2022-08-03T13:34:34;27.60;99.90
31575;DHT22;18182;1.328;103.810;2022-08-03T13:37:01;27.50;99.90
31575;DHT22;18182;1.328;103.810;2022-08-03T13:39:27;27.40;99.90
31575;DHT22;18182;1.328;103.810;2022-08-03T13:41:53;27.30;99.90
31575;DHT22;18182;1.328;103.810;2022-08-03T13:44:20;27.20;99.90
31575;DHT22;18182;1.328;103.810;2022-08-03T13:46:46;27.20;99.90
31575;DHT22;18182;1.328;103.810;2022-08-03T13:49:12;27.30;99.90
31575;DHT22;18182;1.328;103.810;2022-08-03T13:51:39;27.40;99.90
31575;DHT22;18182;1.328;103.810;2022-08-03T13:54:05;27.50;99.90
31575;DHT22;18182;1.328;103.810;2022-08-03T13:56:31;27.40;99.90
31575;DHT22;18182;1.328;103.810;2022-08-03T13:58:58;27.40;99.90
31575;DHT22;18182;1.328;103.810;2022-08-03T14:01:24;27.50;99.90
31575;DHT22;18182;1.328;103.810;2022-08-03T14:03:51;27.40;99.90
31575;DHT22;18182;1.328;103.810;2022-08-03T14:06:19;27.40;99.90
31575;DHT22;18182;1.328;103.810;2022-08-03T14:08:45;27.40;99.90
31575;DHT22;18182;1.328;103.810;2022-08-03T14:11:13;27.50;99.90
31575;DHT22;18182;1.328;103.810;2022-08-03T14:13:39;27.60;99.90
31575;DHT22;18182;1.328;103.810;2022-08-03T14:16:05;27.60;99.90
31575;DHT22;18182;1.328;103.810;2022-08-03T14:18:31;27.70;99.90
31575;DHT22;18182;1.328;103.810;2022-08-03T14:20:57;27.70;99.90
31575;DHT22;18182;1.328;103.810;2022-08-03T14:23:24;27.70;99.90
31575;DHT22;18182;1.328;103.810;2022-08-03T14:25:50;27.70;99.90
31575;DHT22;18182;1.328;103.810;2022-08-03T14:28:19;27.80;99.90
31575;DHT22;18182;1.328;103.810;2022-08-03T14:30:46;27.90;99.90
31575;DHT22;18182;1.328;103.810;2022-08-03T14:33:13;27.80;99.90
31575;DHT22;18182;1.328;103.810;2022-08-03T14:35:39;27.80;99.90
31575;DHT22;18182;1.328;103.810;2022-08-03T14:38:05;27.70;99.90
31575;DHT22;18182;1.328;103.810;2022-08-03T14:40:31;27.70;99.90
31575;DHT22;18182;1.328;103.810;2022-08-03T14:42:58;27.70;99.90
31575;DHT22;18182;1.328;103.810;2022-08-03T14:45:24;27.70;99.90
31575;DHT22;18182;1.328;103.810;2022-08-03T14:47:50;27.70;99.90
31575;DHT22;18182;1.328;103.810;2022-08-03T14:50:16;27.60;99.90
31575;DHT22;18182;1.328;103.810;2022-08-03T14:52:43;27.50;99.90
31575;DHT22;18182;1.328;103.810;2022-08-03T14:55:09;27.50;99.90
31575;DHT22;18182;1.328;103.810;2022-08-03T14:57:35;27.60;99.90
31575;DHT22;18182;1.328;103.810;2022-08-03T15:00:01;27.60;99.90
31575;DHT22;18182;1.328;103.810;2022-08-03T15:02:28;27.60;99.90
31575;DHT22;18182;1.328;103.810;2022-08-03T15:04:55;27.70;99.90
31575;DHT22;18182;1.328;103.810;2022-08-03T15:07:21;27.60;99.90
31575;DHT22;18182;1.328;103.810;2022-08-03T15:09:47;27.70;99.90
31575;DHT22;18182;1.328;103.810;2022-08-03T15:12:13;27.70;99.90
31575;DHT22;18182;1.328;103.810;2022-08-03T15:14:39;27.70;99.90
31575;DHT22;18182;1.328;103.810;2022-08-03T15:17:06;27.70;99.90
31575;DHT22;18182;1.328;103.810;2022-08-03T15:19:32;27.70;99.90
31575;DHT22;18182;1.328;103.810;2022-08-03T15:21:58;27.70;99.90
31575;DHT22;18182;1.328;103.810;2022-08-03T15:24:24;27.70;99.90
31575;DHT22;18182;1.328;103.810;2022-08-03T15:26:50;27.70;99.90
31575;DHT22;18182;1.328;103.810;2022-08-03T15:29:17;27.70;99.90
31575;DHT22;18182;1.328;103.810;2022-08-03T15:31:43;27.70;99.90
31575;DHT22;18182;1.328;103.810;2022-08-03T15:34:10;27.80;99.90
31575;DHT22;18182;1.328;103.810;2022-08-03T15:36:39;27.80;99.90
31575;DHT22;18182;1.328;103.810;2022-08-03T15:39:05;27.90;99.90
31575;DHT22;18182;1.328;103.810;2022-08-03T15:41:31;27.80;99.90
31575;DHT22;18182;1.328;103.810;2022-08-03T15:44:00;27.80;99.90
31575;DHT22;18182;1.328;103.810;2022-08-03T15:46:26;27.70;99.90
31575;DHT22;18182;1.328;103.810;2022-08-03T15:48:54;27.70;99.90
31575;DHT22;18182;1.328;103.810;2022-08-03T15:51:20;27.70;99.90
31575;DHT22;18182;1.328;103.810;2022-08-03T15:53:46;27.70;99.90
31575;DHT22;18182;1.328;103.810;2022-08-03T15:56:12;27.70;99.90
31575;DHT22;18182;1.328;103.810;2022-08-03T15:58:38;27.70;99.90
31575;DHT22;18182;1.328;103.810;2022-08-03T16:01:05;27.70;99.90
31575;DHT22;18182;1.328;103.810;2022-08-03T16:03:31;27.70;99.90
31575;DHT22;18182;1.328;103.810;2022-08-03T16:06:04;27.70;99.90